Cantril, Iowa
Current Conditions -  °F | °C
As of 8:15 AM on Tuesday 21 Oct 2014 (Local Time) from KFFL Reporting Station
NA  
Wind Chill: 37°   Ceiling: NA
Heat Index: 41°   Visibility: NA
Dew Point: 39°   Wind: 6mph
Humidity: 93%   Direction: 50°NE
Pressure: 30.16"   Gusts: NA
Location:  40.64°N, 92.07°W
Report Text: KFFL 211315Z AUTO 05005KT 05/04 A3016 RMK AO2
Loading
Personal Weather Stations






























Interactive Weather Map
Tropical Storm Tracking
New forecast layout! Learn more

10-Day Weather Forecast

Advertisements
Track Severe Weather on mobile